sensor_id;sensor_type;location;lat;lon;timestamp;pressure;altitude;pressure_sealevel;temperature;humidity
47220;BME280;32961;51.936;4.788;2023-05-11T00:02:18;101408.75;;;12.92;100.00
47220;BME280;32961;51.936;4.788;2023-05-11T00:04:47;101402.03;;;12.87;100.00
47220;BME280;32961;51.936;4.788;2023-05-11T00:07:15;101412.94;;;12.87;100.00
47220;BME280;32961;51.936;4.788;2023-05-11T00:09:43;101416.69;;;12.86;100.00
47220;BME280;32961;51.936;4.788;2023-05-11T00:12:10;101408.50;;;12.86;100.00
47220;BME280;32961;51.936;4.788;2023-05-11T00:14:39;101409.34;;;12.86;100.00
47220;BME280;32961;51.936;4.788;2023-05-11T00:17:07;101403.78;;;12.88;100.00
47220;BME280;32961;51.936;4.788;2023-05-11T00:19:36;101402.03;;;12.87;100.00
47220;BME280;32961;51.936;4.788;2023-05-11T00:22:05;101399.47;;;12.85;100.00
47220;BME280;32961;51.936;4.788;2023-05-11T00:24:33;101410.06;;;12.88;100.00
47220;BME280;32961;51.936;4.788;2023-05-11T00:27:01;101405.78;;;12.86;100.00
47220;BME280;32961;51.936;4.788;2023-05-11T00:29:29;101402.19;;;12.85;100.00
47220;BME280;32961;51.936;4.788;2023-05-11T00:31:57;101400.31;;;12.86;100.00
47220;BME280;32961;51.936;4.788;2023-05-11T00:34:25;101405.63;;;12.87;100.00
47220;BME280;32961;51.936;4.788;2023-05-11T00:36:53;101402.88;;;12.87;100.00
47220;BME280;32961;51.936;4.788;2023-05-11T00:39:22;101405.47;;;12.89;100.00
47220;BME280;32961;51.936;4.788;2023-05-11T00:41:50;101395.59;;;12.88;100.00
47220;BME280;32961;51.936;4.788;2023-05-11T00:44:18;101395.72;;;12.86;100.00
47220;BME280;32961;51.936;4.788;2023-05-11T00:46:46;101403.03;;;12.86;100.00
47220;BME280;32961;51.936;4.788;2023-05-11T00:49:14;101401.47;;;12.83;100.00
47220;BME280;32961;51.936;4.788;2023-05-11T00:51:42;101396.16;;;12.81;100.00
47220;BME280;32961;51.936;4.788;2023-05-11T00:54:10;101406.03;;;12.82;100.00
47220;BME280;32961;51.936;4.788;2023-05-11T00:56:42;101406.94;;;12.83;100.00
47220;BME280;32961;51.936;4.788;2023-05-11T00:59:10;101407.94;;;12.82;100.00
47220;BME280;32961;51.936;4.788;2023-05-11T01:01:39;101403.47;;;12.81;100.00
47220;BME280;32961;51.936;4.788;2023-05-11T01:04:07;101405.19;;;12.82;100.00
47220;BME280;32961;51.936;4.788;2023-05-11T01:06:42;101406.03;;;12.82;100.00
47220;BME280;32961;51.936;4.788;2023-05-11T01:09:20;101406.94;;;12.83;100.00
47220;BME280;32961;51.936;4.788;2023-05-11T01:11:58;101411.50;;;12.82;100.00
47220;BME280;32961;51.936;4.788;2023-05-11T01:14:33;101398.03;;;12.81;100.00
47220;BME280;32961;51.936;4.788;2023-05-11T01:17:08;101399.91;;;12.80;100.00
47220;BME280;32961;51.936;4.788;2023-05-11T01:19:40;101397.28;;;12.79;100.00
47220;BME280;32961;51.936;4.788;2023-05-11T01:22:27;101409.25;;;12.78;100.00
47220;BME280;32961;51.936;4.788;2023-05-11T01:25:09;101398.31;;;12.78;100.00
47220;BME280;32961;51.936;4.788;2023-05-11T01:30:46;101397.28;;;12.79;100.00
47220;BME280;32961;51.936;4.788;2023-05-11T01:33:18;101402.91;;;12.77;100.00
47220;BME280;32961;51.936;4.788;2023-05-11T01:35:51;101414.69;;;12.78;100.00
47220;BME280;32961;51.936;4.788;2023-05-11T01:38:21;101409.34;;;12.76;100.00
47220;BME280;32961;51.936;4.788;2023-05-11T01:40:53;101403.22;;;12.74;100.00
47220;BME280;32961;51.936;4.788;2023-05-11T01:43:24;101406.94;;;12.73;100.00
47220;BME280;32961;51.936;4.788;2023-05-11T01:45:59;101404.22;;;12.73;100.00
47220;BME280;32961;51.936;4.788;2023-05-11T01:48:30;101409.81;;;12.72;100.00
47220;BME280;32961;51.936;4.788;2023-05-11T01:51:01;101411.50;;;12.73;100.00
47220;BME280;32961;51.936;4.788;2023-05-11T01:53:32;101406.94;;;12.73;100.00
47220;BME280;32961;51.936;4.788;2023-05-11T01:56:01;101411.50;;;12.73;100.00
47220;BME280;32961;51.936;4.788;2023-05-11T01:58:31;101402.63;;;12.71;100.00
47220;BME280;32961;51.936;4.788;2023-05-11T02:01:01;101401.91;;;12.68;100.00
47220;BME280;32961;51.936;4.788;2023-05-11T02:03:30;101412.53;;;12.72;100.00
47220;BME280;32961;51.936;4.788;2023-05-11T02:06:01;101415.53;;;12.68;100.00
47220;BME280;32961;51.936;4.788;2023-05-11T02:08:31;101417.28;;;12.70;100.00
47220;BME280;32961;51.936;4.788;2023-05-11T02:11:01;101414.53;;;12.70;100.00
47220;BME280;32961;51.936;4.788;2023-05-11T02:13:31;101421.84;;;12.69;100.00
47220;BME280;32961;51.936;4.788;2023-05-11T02:16:01;101420.84;;;12.70;100.00
47220;BME280;32961;51.936;4.788;2023-05-11T02:18:30;101421.72;;;12.71;100.00
47220;BME280;32961;51.936;4.788;2023-05-11T02:21:00;101421.00;;;12.68;100.00
47220;BME280;32961;51.936;4.788;2023-05-11T02:23:29;101417.69;;;12.65;100.00
47220;BME280;32961;51.936;4.788;2023-05-11T02:25:58;101405.38;;;12.61;100.00
47220;BME280;32961;51.936;4.788;2023-05-11T02:28:26;101415.97;;;12.64;100.00
47220;BME280;32961;51.936;4.788;2023-05-11T02:30:55;101412.41;;;12.63;100.00
47220;BME280;32961;51.936;4.788;2023-05-11T02:33:30;101417.69;;;12.65;100.00
47220;BME280;32961;51.936;4.788;2023-05-11T02:36:00;101415.84;;;12.65;100.00
47220;BME280;32961;51.936;4.788;2023-05-11T02:38:31;101416.69;;;12.66;100.00
47220;BME280;32961;51.936;4.788;2023-05-11T02:41:03;101419.28;;;12.67;100.00
47220;BME280;32961;51.936;4.788;2023-05-11T02:43:34;101421.16;;;12.67;100.00
47220;BME280;32961;51.936;4.788;2023-05-11T02:46:05;101414.69;;;12.68;100.00
47220;BME280;32961;51.936;4.788;2023-05-11T02:48:38;101419.28;;;12.67;100.00
47220;BME280;32961;51.936;4.788;2023-05-11T02:51:09;101414.81;;;12.66;100.00
47220;BME280;32961;51.936;4.788;2023-05-11T02:53:39;101413.81;;;12.67;100.00
47220;BME280;32961;51.936;4.788;2023-05-11T02:56:08;101421.00;;;12.68;100.00
47220;BME280;32961;51.936;4.788;2023-05-11T02:58:36;101412.97;;;12.67;100.00
47220;BME280;32961;51.936;4.788;2023-05-11T03:01:05;101413.25;;;12.64;100.00
47220;BME280;32961;51.936;4.788;2023-05-11T03:03:34;101412.53;;;12.62;100.00
47220;BME280;32961;51.936;4.788;2023-05-11T03:06:03;101411.66;;;12.61;100.00
47220;BME280;32961;51.936;4.788;2023-05-11T03:08:31;101414.41;;;12.61;100.00
47220;BME280;32961;51.936;4.788;2023-05-11T03:11:00;101413.53;;;12.61;100.00
47220;BME280;32961;51.936;4.788;2023-05-11T03:13:29;101414.41;;;12.61;100.00
47220;BME280;32961;51.936;4.788;2023-05-11T03:15:59;101412.41;;;12.54;100.00
47220;BME280;32961;51.936;4.788;2023-05-11T03:18:28;101408.94;;;12.51;100.00
47220;BME280;32961;51.936;4.788;2023-05-11T03:20:58;101418.00;;;12.52;100.00
47220;BME280;32961;51.936;4.788;2023-05-11T03:23:29;101419.13;;;12.49;100.00
47220;BME280;32961;51.936;4.788;2023-05-11T03:25:57;101421.00;;;12.49;100.00
47220;BME280;32961;51.936;4.788;2023-05-11T03:28:26;101414.81;;;12.47;100.00
47220;BME280;32961;51.936;4.788;2023-05-11T03:30:56;101413.13;;;12.46;100.00
47220;BME280;32961;51.936;4.788;2023-05-11T03:33:24;101409.81;;;12.42;100.00
47220;BME280;32961;51.936;4.788;2023-05-11T03:35:52;101413.53;;;12.41;100.00
47220;BME280;32961;51.936;4.788;2023-05-11T03:38:22;101409.53;;;12.45;100.00
47220;BME280;32961;51.936;4.788;2023-05-11T03:40:52;101414.13;;;12.45;100.00
47220;BME280;32961;51.936;4.788;2023-05-11T03:43:21;101408.09;;;12.41;100.00
47220;BME280;32961;51.936;4.788;2023-05-11T03:45:50;101409.66;;;12.44;100.00
47220;BME280;32961;51.936;4.788;2023-05-11T03:48:20;101406.06;;;12.43;100.00
47220;BME280;32961;51.936;4.788;2023-05-11T03:50:48;101403.22;;;12.45;100.00
47220;BME280;32961;51.936;4.788;2023-05-11T03:53:16;101404.22;;;12.44;100.00
47220;BME280;32961;51.936;4.788;2023-05-11T03:55:44;101397.78;;;12.45;100.00
47220;BME280;32961;51.936;4.788;2023-05-11T03:58:14;101402.06;;;12.47;100.00
47220;BME280;32961;51.936;4.788;2023-05-11T04:00:42;101396.78;;;12.46;100.00
47220;BME280;32961;51.936;4.788;2023-05-11T04:03:10;101400.91;;;12.50;100.00
47220;BME280;32961;51.936;4.788;2023-05-11T04:05:38;101401.75;;;12.50;100.00
47220;BME280;32961;51.936;4.788;2023-05-11T04:08:07;101399.19;;;12.49;100.00
47220;BME280;32961;51.936;4.788;2023-05-11T04:10:36;101396.31;;;12.50;100.00
47220;BME280;32961;51.936;4.788;2023-05-11T04:13:04;101405.66;;;12.48;100.00
47220;BME280;32961;51.936;4.788;2023-05-11T04:15:33;101405.78;;;12.46;100.00
47220;BME280;32961;51.936;4.788;2023-05-11T04:18:03;101397.31;;;12.40;100.00
47220;BME280;32961;51.936;4.788;2023-05-11T04:20:30;101404.94;;;12.46;100.00
47220;BME280;32961;51.936;4.788;2023-05-11T04:22:58;101405.94;;;12.45;100.00
47220;BME280;32961;51.936;4.788;2023-05-11T04:25:26;101412.09;;;12.47;100.00
47220;BME280;32961;51.936;4.788;2023-05-11T04:27:54;101415.69;;;12.47;100.00
47220;BME280;32961;51.936;4.788;2023-05-11T04:30:22;101417.53;;;12.47;100.00
47220;BME280;32961;51.936;4.788;2023-05-11T04:32:51;101415.84;;;12.46;100.00
47220;BME280;32961;51.936;4.788;2023-05-11T04:35:19;101411.09;;;12.48;100.00
47220;BME280;32961;51.936;4.788;2023-05-11T04:37:49;101422.56;;;12.42;100.00
47220;BME280;32961;51.936;4.788;2023-05-11T04:40:17;101413.53;;;12.41;100.00
47220;BME280;32961;51.936;4.788;2023-05-11T04:42:45;101417.13;;;12.42;100.00
47220;BME280;32961;51.936;4.788;2023-05-11T04:45:13;101417.84;;;12.44;100.00
47220;BME280;32961;51.936;4.788;2023-05-11T04:47:41;101417.53;;;12.47;100.00
47220;BME280;32961;51.936;4.788;2023-05-11T04:50:10;101421.00;;;12.49;100.00
47220;BME280;32961;51.936;4.788;2023-05-11T04:52:38;101423.88;;;12.47;100.00
47220;BME280;32961;51.936;4.788;2023-05-11T04:55:06;101421.31;;;12.46;100.00
47220;BME280;32961;51.936;4.788;2023-05-11T04:57:34;101427.44;;;12.48;100.00
47220;BME280;32961;51.936;4.788;2023-05-11T05:00:05;101435.63;;;12.48;100.00
47220;BME280;32961;51.936;4.788;2023-05-11T05:02:34;101429.19;;;12.49;100.00
47220;BME280;32961;51.936;4.788;2023-05-11T05:05:02;101432.75;;;12.49;100.00
47220;BME280;32961;51.936;4.788;2023-05-11T05:07:31;101424.88;;;12.46;100.00
47220;BME280;32961;51.936;4.788;2023-05-11T05:09:59;101429.91;;;12.51;100.00
47220;BME280;32961;51.936;4.788;2023-05-11T05:12:27;101435.19;;;12.52;100.00
47220;BME280;32961;51.936;4.788;2023-05-11T05:14:55;101432.31;;;12.54;100.00
47220;BME280;32961;51.936;4.788;2023-05-11T05:17:23;101432.75;;;12.59;100.00
47220;BME280;32961;51.936;4.788;2023-05-11T05:19:50;101441.50;;;12.63;100.00
47220;BME280;32961;51.936;4.788;2023-05-11T05:22:18;101442.38;;;12.63;100.00
47220;BME280;32961;51.936;4.788;2023-05-11T05:24:48;101446.38;;;12.59;100.00
47220;BME280;32961;51.936;4.788;2023-05-11T05:27:15;101434.94;;;12.56;100.00
47220;BME280;32961;51.936;4.788;2023-05-11T05:29:43;101460.47;;;12.64;100.00
47220;BME280;32961;51.936;4.788;2023-05-11T05:32:11;101455.59;;;12.68;100.00
47220;BME280;32961;51.936;4.788;2023-05-11T05:34:39;101452.88;;;12.68;100.00
47220;BME280;32961;51.936;4.788;2023-05-11T05:37:07;101456.88;;;12.74;100.00
47220;BME280;32961;51.936;4.788;2023-05-11T05:39:35;101460.31;;;12.76;100.00
47220;BME280;32961;51.936;4.788;2023-05-11T05:42:04;101465.78;;;12.76;100.00
47220;BME280;32961;51.936;4.788;2023-05-11T05:44:32;101458.44;;;12.76;100.00
47220;BME280;32961;51.936;4.788;2023-05-11T05:47:00;101467.34;;;12.78;100.00
47220;BME280;32961;51.936;4.788;2023-05-11T05:49:28;101469.22;;;12.78;100.00
47220;BME280;32961;51.936;4.788;2023-05-11T05:51:55;101456.59;;;12.77;100.00
47220;BME280;32961;51.936;4.788;2023-05-11T05:54:23;101471.22;;;12.86;100.00
47220;BME280;32961;51.936;4.788;2023-05-11T05:56:51;101468.91;;;12.91;100.00
47220;BME280;32961;51.936;4.788;2023-05-11T05:59:20;101477.97;;;12.91;100.00
47220;BME280;32961;51.936;4.788;2023-05-11T06:01:49;101485.69;;;12.96;100.00
47220;BME280;32961;51.936;4.788;2023-05-11T06:04:19;101488.16;;;12.99;100.00
47220;BME280;32961;51.936;4.788;2023-05-11T06:06:47;101488.00;;;13.00;100.00
47220;BME280;32961;51.936;4.788;2023-05-11T06:09:15;101469.34;;;12.96;100.00
47220;BME280;32961;51.936;4.788;2023-05-11T06:11:43;101480.69;;;13.01;100.00
47220;BME280;32961;51.936;4.788;2023-05-11T06:14:10;101491.16;;;13.06;100.00
47220;BME280;32961;51.936;4.788;2023-05-11T06:16:40;101482.69;;;13.09;100.00
47220;BME280;32961;51.936;4.788;2023-05-11T06:19:08;101490.13;;;13.16;100.00
47220;BME280;32961;51.936;4.788;2023-05-11T06:21:36;101488.72;;;13.22;100.00
47220;BME280;32961;51.936;4.788;2023-05-11T06:24:07;101493.59;;;13.28;100.00
47220;BME280;32961;51.936;4.788;2023-05-11T06:26:35;101495.88;;;13.33;100.00
47220;BME280;32961;51.936;4.788;2023-05-11T06:29:02;101494.88;;;13.34;100.00
47220;BME280;32961;51.936;4.788;2023-05-11T06:31:30;101484.06;;;13.32;100.00
47220;BME280;32961;51.936;4.788;2023-05-11T06:33:59;101498.44;;;13.35;100.00
47220;BME280;32961;51.936;4.788;2023-05-11T06:36:27;101498.16;;;13.38;100.00
47220;BME280;32961;51.936;4.788;2023-05-11T06:38:55;101492.16;;;13.44;100.00
47220;BME280;32961;51.936;4.788;2023-05-11T06:41:23;101499.03;;;13.48;100.00
47220;BME280;32961;51.936;4.788;2023-05-11T06:43:51;101497.72;;;13.52;100.00
47220;BME280;32961;51.936;4.788;2023-05-11T06:46:19;101502.00;;;13.55;100.00
47220;BME280;32961;51.936;4.788;2023-05-11T06:48:47;101505.47;;;13.57;100.00
47220;BME280;32961;51.936;4.788;2023-05-11T06:51:17;101498.84;;;13.59;100.00
47220;BME280;32961;51.936;4.788;2023-05-11T06:53:46;101502.28;;;13.61;100.00
47220;BME280;32961;51.936;4.788;2023-05-11T06:56:14;101505.75;;;13.63;100.00
47220;BME280;32961;51.936;4.788;2023-05-11T06:58:42;101501.28;;;13.62;100.00
47220;BME280;32961;51.936;4.788;2023-05-11T07:01:10;101507.00;;;13.69;100.00
47220;BME280;32961;51.936;4.788;2023-05-11T07:03:38;101498.81;;;13.69;100.00
47220;BME280;32961;51.936;4.788;2023-05-11T07:06:06;101516.50;;;13.75;100.00
47220;BME280;32961;51.936;4.788;2023-05-11T07:08:36;101471.25;;;13.62;100.00
47220;BME280;32961;51.936;4.788;2023-05-11T07:11:04;101508.94;;;13.87;100.00
47220;BME280;32961;51.936;4.788;2023-05-11T07:13:32;101507.81;;;13.89;100.00
47220;BME280;32961;51.936;4.788;2023-05-11T07:16:00;101510.22;;;13.92;100.00
47220;BME280;32961;51.936;4.788;2023-05-11T07:18:28;101511.34;;;14.00;100.00
47220;BME280;32961;51.936;4.788;2023-05-11T07:20:56;101516.06;;;14.07;100.00
47220;BME280;32961;51.936;4.788;2023-05-11T07:23:23;101513.88;;;14.11;100.00
47220;BME280;32961;51.936;4.788;2023-05-11T07:25:53;101510.53;;;14.17;100.00
47220;BME280;32961;51.936;4.788;2023-05-11T07:28:22;101508.91;;;14.24;100.00
47220;BME280;32961;51.936;4.788;2023-05-11T07:30:50;101503.72;;;14.31;100.00
47220;BME280;32961;51.936;4.788;2023-05-11T07:33:18;101514.44;;;14.42;100.00
47220;BME280;32961;51.936;4.788;2023-05-11T07:35:46;101509.91;;;14.51;100.00
47220;BME280;32961;51.936;4.788;2023-05-11T07:38:14;101517.34;;;14.59;100.00
47220;BME280;32961;51.936;4.788;2023-05-11T07:40:42;101511.31;;;14.55;100.00
47220;BME280;32961;51.936;4.788;2023-05-11T07:43:11;101519.06;;;14.60;100.00
47220;BME280;32961;51.936;4.788;2023-05-11T07:45:39;101512.88;;;14.68;100.00
47220;BME280;32961;51.936;4.788;2023-05-11T07:48:06;101520.13;;;14.77;100.00
47220;BME280;32961;51.936;4.788;2023-05-11T07:50:34;101514.91;;;14.84;100.00
47220;BME280;32961;51.936;4.788;2023-05-11T07:53:02;101516.03;;;14.81;97.96
47220;BME280;32961;51.936;4.788;2023-05-11T07:55:30;101512.31;;;14.82;100.00
47220;BME280;32961;51.936;4.788;2023-05-11T07:57:58;101511.66;;;14.88;100.00
47220;BME280;32961;51.936;4.788;2023-05-11T08:00:28;101512.78;;;14.96;100.00
47220;BME280;32961;51.936;4.788;2023-05-11T08:02:56;101506.19;;;15.06;100.00
47220;BME280;32961;51.936;4.788;2023-05-11T08:05:24;101522.06;;;15.21;99.75
47220;BME280;32961;51.936;4.788;2023-05-11T08:07:52;101522.44;;;15.08;94.88
47220;BME280;32961;51.936;4.788;2023-05-11T08:10:20;101523.16;;;15.10;96.19
47220;BME280;32961;51.936;4.788;2023-05-11T08:12:48;101518.16;;;15.23;96.54
47220;BME280;32961;51.936;4.788;2023-05-11T08:15:16;101521.81;;;15.32;94.06
47220;BME280;32961;51.936;4.788;2023-05-11T08:17:45;101520.69;;;15.43;94.82
47220;BME280;32961;51.936;4.788;2023-05-11T08:20:13;101522.31;;;15.54;94.43
47220;BME280;32961;51.936;4.788;2023-05-11T08:22:41;101527.75;;;15.72;94.60
47220;BME280;32961;51.936;4.788;2023-05-11T08:25:09;101524.75;;;15.83;93.91
47220;BME280;32961;51.936;4.788;2023-05-11T08:27:37;101524.75;;;15.83;90.22
47220;BME280;32961;51.936;4.788;2023-05-11T08:30:05;101526.88;;;15.71;86.73
47220;BME280;32961;51.936;4.788;2023-05-11T08:32:37;101527.09;;;15.78;90.20
47220;BME280;32961;51.936;4.788;2023-05-11T08:35:10;101524.69;;;16.01;91.34
47220;BME280;32961;51.936;4.788;2023-05-11T08:37:38;101521.69;;;16.21;91.41
47220;BME280;32961;51.936;4.788;2023-05-11T08:40:09;101520.00;;;16.36;90.62
47220;BME280;32961;51.936;4.788;2023-05-11T08:42:40;101523.66;;;16.53;90.51
47220;BME280;32961;51.936;4.788;2023-05-11T08:45:12;101526.13;;;16.73;90.06
47220;BME280;32961;51.936;4.788;2023-05-11T08:47:40;101525.38;;;16.55;82.55
47220;BME280;32961;51.936;4.788;2023-05-11T08:50:09;101528.44;;;16.51;86.54
47220;BME280;32961;51.936;4.788;2023-05-11T08:52:37;101520.91;;;16.53;87.33
47220;BME280;32961;51.936;4.788;2023-05-11T08:55:07;101516.50;;;16.61;87.81
47220;BME280;32961;51.936;4.788;2023-05-11T08:57:35;101520.06;;;16.61;86.96
47220;BME280;32961;51.936;4.788;2023-05-11T09:00:03;101519.22;;;16.61;86.64
47220;BME280;32961;51.936;4.788;2023-05-11T09:02:33;101522.16;;;16.67;86.29
47220;BME280;32961;51.936;4.788;2023-05-11T09:05:02;101515.78;;;16.59;84.94
47220;BME280;32961;51.936;4.788;2023-05-11T09:07:34;101519.06;;;16.62;86.22
47220;BME280;32961;51.936;4.788;2023-05-11T09:10:03;101524.03;;;16.67;86.34
47220;BME280;32961;51.936;4.788;2023-05-11T09:12:31;101524.38;;;16.72;85.75
47220;BME280;32961;51.936;4.788;2023-05-11T09:14:59;101528.19;;;16.79;86.14
47220;BME280;32961;51.936;4.788;2023-05-11T09:17:28;101524.75;;;16.85;85.84
47220;BME280;32961;51.936;4.788;2023-05-11T09:19:57;101519.63;;;16.91;85.55
47220;BME280;32961;51.936;4.788;2023-05-11T09:22:32;101523.59;;;16.96;85.44
47220;BME280;32961;51.936;4.788;2023-05-11T09:25:02;101515.19;;;16.90;83.70
47220;BME280;32961;51.936;4.788;2023-05-11T09:27:30;101525.78;;;16.76;81.79
47220;BME280;32961;51.936;4.788;2023-05-11T09:30:10;101524.59;;;16.79;83.65
47220;BME280;32961;51.936;4.788;2023-05-11T09:32:49;101527.84;;;16.82;83.21
47220;BME280;32961;51.936;4.788;2023-05-11T09:35:18;101521.69;;;16.89;83.25
47220;BME280;32961;51.936;4.788;2023-05-11T09:38:03;101525.84;;;17.01;83.56
47220;BME280;32961;51.936;4.788;2023-05-11T09:40:33;101532.19;;;17.10;83.35
47220;BME280;32961;51.936;4.788;2023-05-11T09:43:02;101535.78;;;17.19;83.12
47220;BME280;32961;51.936;4.788;2023-05-11T09:45:34;101528.78;;;17.24;82.01
47220;BME280;32961;51.936;4.788;2023-05-11T09:48:02;101528.94;;;17.31;81.46
47220;BME280;32961;51.936;4.788;2023-05-11T09:50:31;101528.94;;;17.31;80.53
47220;BME280;32961;51.936;4.788;2023-05-11T09:53:01;101524.31;;;17.31;80.41
47220;BME280;32961;51.936;4.788;2023-05-11T09:55:29;101537.34;;;17.29;79.75
47220;BME280;32961;51.936;4.788;2023-05-11T09:57:57;101532.38;;;17.25;79.40
47220;BME280;32961;51.936;4.788;2023-05-11T10:00:25;101538.53;;;17.19;79.16
47220;BME280;32961;51.936;4.788;2023-05-11T10:02:59;101535.47;;;17.13;78.89
47220;BME280;32961;51.936;4.788;2023-05-11T10:05:29;101531.19;;;17.11;79.48
47220;BME280;32961;51.936;4.788;2023-05-11T10:07:58;101536.66;;;17.11;79.21
47220;BME280;32961;51.936;4.788;2023-05-11T10:10:30;101538.19;;;17.13;79.11
47220;BME280;32961;51.936;4.788;2023-05-11T10:13:01;101533.56;;;17.14;78.70
47220;BME280;32961;51.936;4.788;2023-05-11T10:15:31;101534.25;;;17.08;77.35
47220;BME280;32961;51.936;4.788;2023-05-11T10:18:02;101534.38;;;16.90;78.89
47220;BME280;32961;51.936;4.788;2023-05-11T10:20:31;101544.78;;;16.69;80.07
47220;BME280;32961;51.936;4.788;2023-05-11T10:23:00;101540.31;;;16.52;80.88
47220;BME280;32961;51.936;4.788;2023-05-11T10:25:30;101536.28;;;16.38;82.42
47220;BME280;32961;51.936;4.788;2023-05-11T10:27:58;101533.38;;;16.31;83.32
47220;BME280;32961;51.936;4.788;2023-05-11T10:30:26;101531.16;;;16.35;84.38
47220;BME280;32961;51.936;4.788;2023-05-11T10:32:54;101537.34;;;16.37;83.71
47220;BME280;32961;51.936;4.788;2023-05-11T10:35:23;101537.00;;;16.40;84.12
47220;BME280;32961;51.936;4.788;2023-05-11T10:37:51;101543.84;;;16.44;85.11
47220;BME280;32961;51.936;4.788;2023-05-11T10:40:19;101542.38;;;16.58;86.19
47220;BME280;32961;51.936;4.788;2023-05-11T10:43:18;101542.06;;;16.69;85.90
47220;BME280;32961;51.936;4.788;2023-05-11T10:45:56;101538.59;;;16.67;85.59
47220;BME280;32961;51.936;4.788;2023-05-11T10:48:51;101532.97;;;16.69;86.70
47220;BME280;32961;51.936;4.788;2023-05-11T10:51:36;101541.34;;;16.59;87.17
47220;BME280;32961;51.936;4.788;2023-05-11T10:54:25;101538.91;;;16.48;87.82
47220;BME280;32961;51.936;4.788;2023-05-11T10:57:07;101539.06;;;16.46;89.24
47220;BME280;32961;51.936;4.788;2023-05-11T11:03:08;101556.47;;;16.20;90.56
47220;BME280;32961;51.936;4.788;2023-05-11T11:05:36;101548.56;;;16.17;90.81
47220;BME280;32961;51.936;4.788;2023-05-11T11:08:05;101542.91;;;16.19;91.46
47220;BME280;32961;51.936;4.788;2023-05-11T11:10:36;101544.13;;;16.25;92.35
47220;BME280;32961;51.936;4.788;2023-05-11T11:13:05;101542.09;;;16.27;91.93
47220;BME280;32961;51.936;4.788;2023-05-11T11:16:08;101538.84;;;16.31;92.29
47220;BME280;32961;51.936;4.788;2023-05-11T11:18:39;101534.34;;;16.22;90.17
47220;BME280;32961;51.936;4.788;2023-05-11T11:21:07;101531.91;;;16.11;89.83
47220;BME280;32961;51.936;4.788;2023-05-11T11:23:43;101530.63;;;15.70;89.09
47220;BME280;32961;51.936;4.788;2023-05-11T11:26:12;101527.03;;;15.70;90.93
47220;BME280;32961;51.936;4.788;2023-05-11T11:29:07;101528.00;;;15.61;88.78
47220;BME280;32961;51.936;4.788;2023-05-11T11:31:35;101522.31;;;15.54;89.18
47220;BME280;32961;51.936;4.788;2023-05-11T11:34:33;101519.66;;;15.70;91.13
47220;BME280;32961;51.936;4.788;2023-05-11T11:37:03;101515.53;;;15.93;91.47
47220;BME280;32961;51.936;4.788;2023-05-11T11:39:50;101518.00;;;16.04;91.83
47220;BME280;32961;51.936;4.788;2023-05-11T11:42:35;101515.69;;;16.17;91.99
47220;BME280;32961;51.936;4.788;2023-05-11T11:45:27;101525.63;;;16.27;91.13
47220;BME280;32961;51.936;4.788;2023-05-11T11:48:14;101524.97;;;16.33;90.57
47220;BME280;32961;51.936;4.788;2023-05-11T11:50:45;101512.97;;;16.34;90.29
47220;BME280;32961;51.936;4.788;2023-05-11T11:56:40;101521.25;;;16.42;88.30
47220;BME280;32961;51.936;4.788;2023-05-11T11:59:15;101529.78;;;16.31;87.30
47220;BME280;32961;51.936;4.788;2023-05-11T12:01:44;101532.56;;;16.47;87.45
47220;BME280;32961;51.936;4.788;2023-05-11T12:07:07;101532.97;;;16.69;88.88
47220;BME280;32961;51.936;4.788;2023-05-11T12:09:37;101533.16;;;16.84;89.86
47220;BME280;32961;51.936;4.788;2023-05-11T12:12:05;101542.66;;;16.98;87.71
47220;BME280;32961;51.936;4.788;2023-05-11T12:14:34;101538.81;;;16.91;84.43
47220;BME280;32961;51.936;4.788;2023-05-11T12:17:06;101552.84;;;16.71;81.45
47220;BME280;32961;51.936;4.788;2023-05-11T12:19:40;101545.97;;;16.50;84.79
47220;BME280;32961;51.936;4.788;2023-05-11T12:22:10;101550.19;;;16.36;85.53
47220;BME280;32961;51.936;4.788;2023-05-11T12:24:40;101555.44;;;16.22;85.28
47220;BME280;32961;51.936;4.788;2023-05-11T12:27:08;101552.34;;;16.16;85.51
47220;BME280;32961;51.936;4.788;2023-05-11T12:29:35;101541.19;;;16.18;85.60
47220;BME280;32961;51.936;4.788;2023-05-11T12:32:04;101536.91;;;16.15;84.78
47220;BME280;32961;51.936;4.788;2023-05-11T12:34:37;101537.22;;;16.12;82.82
47220;BME280;32961;51.936;4.788;2023-05-11T12:37:05;101538.94;;;16.13;83.53
47220;BME280;32961;51.936;4.788;2023-05-11T12:39:35;101547.91;;;16.24;83.15
47220;BME280;32961;51.936;4.788;2023-05-11T12:42:05;101541.03;;;16.19;81.79
47220;BME280;32961;51.936;4.788;2023-05-11T12:44:33;101549.28;;;16.28;81.81
47220;BME280;32961;51.936;4.788;2023-05-11T12:47:00;101544.91;;;16.09;79.30
47220;BME280;32961;51.936;4.788;2023-05-11T12:49:28;101544.06;;;16.08;80.72
47220;BME280;32961;51.936;4.788;2023-05-11T12:52:03;101547.03;;;16.23;82.31
47220;BME280;32961;51.936;4.788;2023-05-11T12:54:36;101552.69;;;16.22;82.52
47220;BME280;32961;51.936;4.788;2023-05-11T12:57:05;101551.13;;;16.19;85.04
47220;BME280;32961;51.936;4.788;2023-05-11T12:59:35;101545.88;;;16.34;85.23
47220;BME280;32961;51.936;4.788;2023-05-11T13:02:08;101561.00;;;16.46;86.12
47220;BME280;32961;51.936;4.788;2023-05-11T13:04:38;101553.81;;;16.45;83.78
47220;BME280;32961;51.936;4.788;2023-05-11T13:07:07;101548.09;;;16.30;86.23
47220;BME280;32961;51.936;4.788;2023-05-11T13:09:36;101539.22;;;16.36;85.94
47220;BME280;32961;51.936;4.788;2023-05-11T13:12:13;101543.41;;;16.57;87.13